Terminal Aerodrome Forecast
Issued by NWS

Home | Current Version | Previous Version | Text Only | Print | Product List | Glossary On
Versions: 1 2 3 4 5 6 7 8 9 10 11 12 13
000
FTUS42 KJAX 150500
TAFCRG
TAF
KCRG 150520Z 1506/1606 16004KT P6SM BKN250
     FM151600 26004KT P6SM VCSH SCT035 SCT250
     FM151900 13008KT P6SM VCTS SCT030CB BKN050
     FM160000 19004KT P6SM SCT150 BKN250=

USA.gov is the U.S. government's official web portal to all federal, state and local government web resources and services.